sensor_id;sensor_type;location;lat;lon;timestamp;P1;durP1;ratioP1;P2;durP2;ratioP2
6109;SDS011;3085;49.444;11.054;2022-08-06T00:00:39;2.50;;;1.40;;
6109;SDS011;3085;49.444;11.054;2022-08-06T00:03:07;4.80;;;1.73;;
6109;SDS011;3085;49.444;11.054;2022-08-06T00:05:33;5.93;;;2.20;;
6109;SDS011;3085;49.444;11.054;2022-08-06T00:08:02;2.57;;;1.53;;
6109;SDS011;3085;49.444;11.054;2022-08-06T00:10:29;2.17;;;1.43;;
6109;SDS011;3085;49.444;11.054;2022-08-06T00:12:56;2.80;;;1.47;;
6109;SDS011;3085;49.444;11.054;2022-08-06T00:15:24;7.37;;;2.03;;
6109;SDS011;3085;49.444;11.054;2022-08-06T00:17:50;2.80;;;1.67;;
6109;SDS011;3085;49.444;11.054;2022-08-06T00:20:17;2.50;;;1.57;;
6109;SDS011;3085;49.444;11.054;2022-08-06T00:22:44;3.63;;;2.13;;
6109;SDS011;3085;49.444;11.054;2022-08-06T00:25:12;13.30;;;3.60;;
6109;SDS011;3085;49.444;11.054;2022-08-06T00:27:39;2.00;;;1.37;;
6109;SDS011;3085;49.444;11.054;2022-08-06T00:30:07;4.73;;;1.70;;
6109;SDS011;3085;49.444;11.054;2022-08-06T00:32:35;2.47;;;1.63;;
6109;SDS011;3085;49.444;11.054;2022-08-06T00:35:02;3.60;;;1.80;;
6109;SDS011;3085;49.444;11.054;2022-08-06T00:37:30;4.00;;;2.70;;
6109;SDS011;3085;49.444;11.054;2022-08-06T00:39:57;3.60;;;1.70;;
6109;SDS011;3085;49.444;11.054;2022-08-06T00:42:25;4.10;;;2.17;;
6109;SDS011;3085;49.444;11.054;2022-08-06T00:44:53;2.57;;;1.77;;
6109;SDS011;3085;49.444;11.054;2022-08-06T00:47:20;2.67;;;1.70;;
6109;SDS011;3085;49.444;11.054;2022-08-06T00:49:47;3.90;;;1.40;;
6109;SDS011;3085;49.444;11.054;2022-08-06T00:52:13;2.90;;;1.53;;
6109;SDS011;3085;49.444;11.054;2022-08-06T00:54:40;3.07;;;2.00;;
6109;SDS011;3085;49.444;11.054;2022-08-06T00:57:07;4.13;;;1.80;;
6109;SDS011;3085;49.444;11.054;2022-08-06T00:59:35;2.03;;;1.23;;
6109;SDS011;3085;49.444;11.054;2022-08-06T01:02:02;1.30;;;0.97;;
6109;SDS011;3085;49.444;11.054;2022-08-06T01:04:28;2.50;;;1.50;;
6109;SDS011;3085;49.444;11.054;2022-08-06T01:06:55;3.60;;;2.40;;
6109;SDS011;3085;49.444;11.054;2022-08-06T01:09:22;2.93;;;1.50;;
6109;SDS011;3085;49.444;11.054;2022-08-06T01:11:49;5.20;;;2.10;;
6109;SDS011;3085;49.444;11.054;2022-08-06T01:14:15;2.37;;;1.47;;
6109;SDS011;3085;49.444;11.054;2022-08-06T01:16:45;4.73;;;1.23;;
6109;SDS011;3085;49.444;11.054;2022-08-06T01:22:10;1.57;;;1.00;;
6109;SDS011;3085;49.444;11.054;2022-08-06T01:25:13;5.67;;;1.33;;
6109;SDS011;3085;49.444;11.054;2022-08-06T01:27:54;4.70;;;1.90;;
6109;SDS011;3085;49.444;11.054;2022-08-06T01:30:24;2.70;;;1.10;;
6109;SDS011;3085;49.444;11.054;2022-08-06T01:32:57;2.00;;;1.10;;
6109;SDS011;3085;49.444;11.054;2022-08-06T01:35:30;1.97;;;1.27;;
6109;SDS011;3085;49.444;11.054;2022-08-06T01:38:02;2.63;;;1.47;;
6109;SDS011;3085;49.444;11.054;2022-08-06T01:40:34;1.50;;;0.87;;
6109;SDS011;3085;49.444;11.054;2022-08-06T01:43:06;1.50;;;1.13;;
6109;SDS011;3085;49.444;11.054;2022-08-06T01:45:35;2.13;;;1.40;;
6109;SDS011;3085;49.444;11.054;2022-08-06T01:48:06;2.23;;;1.47;;
6109;SDS011;3085;49.444;11.054;2022-08-06T01:50:38;1.80;;;1.30;;
6109;SDS011;3085;49.444;11.054;2022-08-06T01:53:08;3.17;;;1.27;;
6109;SDS011;3085;49.444;11.054;2022-08-06T01:55:41;1.97;;;1.33;;
6109;SDS011;3085;49.444;11.054;2022-08-06T01:58:12;2.20;;;1.20;;
6109;SDS011;3085;49.444;11.054;2022-08-06T02:00:44;2.20;;;1.30;;
6109;SDS011;3085;49.444;11.054;2022-08-06T02:03:16;3.07;;;1.50;;
6109;SDS011;3085;49.444;11.054;2022-08-06T02:05:49;1.73;;;1.10;;
6109;SDS011;3085;49.444;11.054;2022-08-06T02:08:18;2.90;;;1.80;;
6109;SDS011;3085;49.444;11.054;2022-08-06T02:10:48;2.17;;;1.37;;
6109;SDS011;3085;49.444;11.054;2022-08-06T02:13:19;3.30;;;1.67;;
6109;SDS011;3085;49.444;11.054;2022-08-06T02:15:48;3.20;;;1.47;;
6109;SDS011;3085;49.444;11.054;2022-08-06T02:18:17;2.03;;;1.37;;
6109;SDS011;3085;49.444;11.054;2022-08-06T02:20:49;2.10;;;1.50;;
6109;SDS011;3085;49.444;11.054;2022-08-06T02:23:19;2.13;;;1.33;;
6109;SDS011;3085;49.444;11.054;2022-08-06T02:25:49;2.47;;;1.50;;
6109;SDS011;3085;49.444;11.054;2022-08-06T02:28:21;2.80;;;1.47;;
6109;SDS011;3085;49.444;11.054;2022-08-06T02:30:50;2.40;;;1.23;;
6109;SDS011;3085;49.444;11.054;2022-08-06T02:33:18;1.50;;;1.10;;
6109;SDS011;3085;49.444;11.054;2022-08-06T02:35:46;1.87;;;1.30;;
6109;SDS011;3085;49.444;11.054;2022-08-06T02:38:17;2.60;;;1.50;;
6109;SDS011;3085;49.444;11.054;2022-08-06T02:40:53;4.37;;;1.63;;
6109;SDS011;3085;49.444;11.054;2022-08-06T02:43:27;2.00;;;1.40;;
6109;SDS011;3085;49.444;11.054;2022-08-06T02:45:59;1.73;;;1.27;;
6109;SDS011;3085;49.444;11.054;2022-08-06T02:48:33;4.00;;;1.60;;
6109;SDS011;3085;49.444;11.054;2022-08-06T02:51:05;2.70;;;1.50;;
6109;SDS011;3085;49.444;11.054;2022-08-06T02:53:38;4.03;;;1.50;;
6109;SDS011;3085;49.444;11.054;2022-08-06T02:56:13;2.40;;;1.70;;
6109;SDS011;3085;49.444;11.054;2022-08-06T02:58:43;2.70;;;1.63;;
6109;SDS011;3085;49.444;11.054;2022-08-06T03:01:14;5.00;;;1.70;;
6109;SDS011;3085;49.444;11.054;2022-08-06T03:03:42;2.30;;;1.30;;
6109;SDS011;3085;49.444;11.054;2022-08-06T03:06:11;2.60;;;1.50;;
6109;SDS011;3085;49.444;11.054;2022-08-06T03:08:40;2.10;;;1.50;;
6109;SDS011;3085;49.444;11.054;2022-08-06T03:11:09;2.50;;;1.60;;
6109;SDS011;3085;49.444;11.054;2022-08-06T03:13:37;2.40;;;1.70;;
6109;SDS011;3085;49.444;11.054;2022-08-06T03:16:06;2.63;;;1.60;;
6109;SDS011;3085;49.444;11.054;2022-08-06T03:18:33;2.10;;;1.47;;
6109;SDS011;3085;49.444;11.054;2022-08-06T03:21:02;2.03;;;1.83;;
6109;SDS011;3085;49.444;11.054;2022-08-06T03:23:29;2.43;;;1.47;;
6109;SDS011;3085;49.444;11.054;2022-08-06T03:25:57;4.50;;;1.63;;
6109;SDS011;3085;49.444;11.054;2022-08-06T03:28:25;1.70;;;1.40;;
6109;SDS011;3085;49.444;11.054;2022-08-06T03:30:53;3.17;;;2.03;;
6109;SDS011;3085;49.444;11.054;2022-08-06T03:33:22;10.77;;;2.30;;
6109;SDS011;3085;49.444;11.054;2022-08-06T03:35:49;3.90;;;1.97;;
6109;SDS011;3085;49.444;11.054;2022-08-06T03:38:17;1.93;;;1.53;;
6109;SDS011;3085;49.444;11.054;2022-08-06T03:40:46;2.67;;;2.07;;
6109;SDS011;3085;49.444;11.054;2022-08-06T03:43:14;2.27;;;1.70;;
6109;SDS011;3085;49.444;11.054;2022-08-06T03:45:43;4.50;;;2.20;;
6109;SDS011;3085;49.444;11.054;2022-08-06T03:48:15;1.97;;;1.27;;
6109;SDS011;3085;49.444;11.054;2022-08-06T03:50:47;8.50;;;2.00;;
6109;SDS011;3085;49.444;11.054;2022-08-06T03:53:16;2.23;;;1.50;;
6109;SDS011;3085;49.444;11.054;2022-08-06T03:55:45;3.20;;;1.77;;
6109;SDS011;3085;49.444;11.054;2022-08-06T03:58:13;2.60;;;1.60;;
6109;SDS011;3085;49.444;11.054;2022-08-06T04:03:25;5.77;;;2.40;;
6109;SDS011;3085;49.444;11.054;2022-08-06T04:05:54;2.37;;;1.57;;
6109;SDS011;3085;49.444;11.054;2022-08-06T04:08:22;3.10;;;1.80;;
6109;SDS011;3085;49.444;11.054;2022-08-06T04:10:50;3.80;;;2.07;;
6109;SDS011;3085;49.444;11.054;2022-08-06T04:13:18;2.40;;;1.53;;
6109;SDS011;3085;49.444;11.054;2022-08-06T04:15:46;3.47;;;2.27;;
6109;SDS011;3085;49.444;11.054;2022-08-06T04:18:15;2.00;;;1.73;;
6109;SDS011;3085;49.444;11.054;2022-08-06T04:20:45;2.50;;;1.73;;
6109;SDS011;3085;49.444;11.054;2022-08-06T04:23:15;2.37;;;1.77;;
6109;SDS011;3085;49.444;11.054;2022-08-06T04:25:43;2.87;;;1.80;;
6109;SDS011;3085;49.444;11.054;2022-08-06T04:28:12;2.43;;;2.00;;
6109;SDS011;3085;49.444;11.054;2022-08-06T04:30:41;3.27;;;1.97;;
6109;SDS011;3085;49.444;11.054;2022-08-06T04:33:10;6.90;;;1.73;;
6109;SDS011;3085;49.444;11.054;2022-08-06T04:35:39;3.67;;;1.80;;
6109;SDS011;3085;49.444;11.054;2022-08-06T04:38:07;2.93;;;1.93;;
6109;SDS011;3085;49.444;11.054;2022-08-06T04:40:36;3.77;;;2.20;;
6109;SDS011;3085;49.444;11.054;2022-08-06T04:43:04;4.00;;;2.30;;
6109;SDS011;3085;49.444;11.054;2022-08-06T04:45:32;10.80;;;2.20;;
6109;SDS011;3085;49.444;11.054;2022-08-06T04:48:00;3.37;;;1.93;;
6109;SDS011;3085;49.444;11.054;2022-08-06T04:50:29;2.77;;;2.10;;
6109;SDS011;3085;49.444;11.054;2022-08-06T04:53:03;4.20;;;1.73;;
6109;SDS011;3085;49.444;11.054;2022-08-06T04:55:31;2.80;;;1.87;;
6109;SDS011;3085;49.444;11.054;2022-08-06T04:57:59;2.37;;;1.90;;
6109;SDS011;3085;49.444;11.054;2022-08-06T05:00:26;2.93;;;1.70;;
6109;SDS011;3085;49.444;11.054;2022-08-06T05:02:53;1.73;;;1.47;;
6109;SDS011;3085;49.444;11.054;2022-08-06T05:05:20;2.67;;;1.50;;
6109;SDS011;3085;49.444;11.054;2022-08-06T05:07:48;2.33;;;1.60;;
6109;SDS011;3085;49.444;11.054;2022-08-06T05:10:18;2.73;;;1.80;;
6109;SDS011;3085;49.444;11.054;2022-08-06T05:12:47;6.03;;;2.40;;
6109;SDS011;3085;49.444;11.054;2022-08-06T05:15:22;2.63;;;1.60;;
6109;SDS011;3085;49.444;11.054;2022-08-06T05:17:54;3.83;;;1.60;;
6109;SDS011;3085;49.444;11.054;2022-08-06T05:20:23;2.20;;;1.47;;
6109;SDS011;3085;49.444;11.054;2022-08-06T05:22:53;2.70;;;1.77;;
6109;SDS011;3085;49.444;11.054;2022-08-06T05:25:23;2.83;;;1.53;;
6109;SDS011;3085;49.444;11.054;2022-08-06T05:27:49;2.17;;;1.67;;
6109;SDS011;3085;49.444;11.054;2022-08-06T05:30:16;3.10;;;2.07;;
6109;SDS011;3085;49.444;11.054;2022-08-06T05:32:45;5.53;;;1.40;;
6109;SDS011;3085;49.444;11.054;2022-08-06T05:35:14;2.13;;;1.43;;
6109;SDS011;3085;49.444;11.054;2022-08-06T05:37:41;6.57;;;1.10;;
6109;SDS011;3085;49.444;11.054;2022-08-06T05:40:08;3.93;;;1.33;;
6109;SDS011;3085;49.444;11.054;2022-08-06T05:42:35;1.63;;;1.30;;
6109;SDS011;3085;49.444;11.054;2022-08-06T05:45:02;6.60;;;2.30;;
6109;SDS011;3085;49.444;11.054;2022-08-06T05:47:31;3.83;;;1.20;;
6109;SDS011;3085;49.444;11.054;2022-08-06T05:50:04;4.60;;;1.20;;
6109;SDS011;3085;49.444;11.054;2022-08-06T05:52:34;2.10;;;1.40;;
6109;SDS011;3085;49.444;11.054;2022-08-06T05:55:06;1.67;;;1.20;;
6109;SDS011;3085;49.444;11.054;2022-08-06T05:57:39;2.23;;;1.50;;
6109;SDS011;3085;49.444;11.054;2022-08-06T06:00:11;2.10;;;1.50;;
6109;SDS011;3085;49.444;11.054;2022-08-06T06:02:42;1.57;;;1.13;;
6109;SDS011;3085;49.444;11.054;2022-08-06T06:05:12;2.00;;;1.10;;
6109;SDS011;3085;49.444;11.054;2022-08-06T06:07:39;6.37;;;2.90;;
6109;SDS011;3085;49.444;11.054;2022-08-06T06:10:07;1.53;;;1.00;;
6109;SDS011;3085;49.444;11.054;2022-08-06T06:12:38;2.70;;;1.30;;
6109;SDS011;3085;49.444;11.054;2022-08-06T06:15:06;1.87;;;1.30;;
6109;SDS011;3085;49.444;11.054;2022-08-06T06:17:41;2.10;;;1.30;;
6109;SDS011;3085;49.444;11.054;2022-08-06T06:20:28;1.73;;;1.20;;
6109;SDS011;3085;49.444;11.054;2022-08-06T06:23:02;1.20;;;0.83;;
6109;SDS011;3085;49.444;11.054;2022-08-06T06:25:35;2.27;;;1.20;;
6109;SDS011;3085;49.444;11.054;2022-08-06T06:28:13;4.50;;;1.57;;
6109;SDS011;3085;49.444;11.054;2022-08-06T06:30:50;1.60;;;1.00;;
6109;SDS011;3085;49.444;11.054;2022-08-06T06:33:21;3.43;;;1.10;;
6109;SDS011;3085;49.444;11.054;2022-08-06T06:35:56;1.40;;;1.00;;
6109;SDS011;3085;49.444;11.054;2022-08-06T06:38:31;2.90;;;1.17;;
6109;SDS011;3085;49.444;11.054;2022-08-06T06:41:07;1.80;;;0.90;;
6109;SDS011;3085;49.444;11.054;2022-08-06T06:43:37;1.30;;;0.80;;
6109;SDS011;3085;49.444;11.054;2022-08-06T06:46:10;2.10;;;1.00;;
6109;SDS011;3085;49.444;11.054;2022-08-06T06:48:45;1.37;;;1.00;;
6109;SDS011;3085;49.444;11.054;2022-08-06T06:51:16;1.30;;;1.00;;
6109;SDS011;3085;49.444;11.054;2022-08-06T06:53:48;1.20;;;0.70;;
6109;SDS011;3085;49.444;11.054;2022-08-06T06:56:17;2.97;;;1.03;;
6109;SDS011;3085;49.444;11.054;2022-08-06T06:58:48;1.30;;;0.90;;
6109;SDS011;3085;49.444;11.054;2022-08-06T07:01:18;1.40;;;0.93;;
6109;SDS011;3085;49.444;11.054;2022-08-06T07:03:46;3.20;;;1.10;;
6109;SDS011;3085;49.444;11.054;2022-08-06T07:06:16;1.33;;;1.07;;
6109;SDS011;3085;49.444;11.054;2022-08-06T07:08:45;1.63;;;0.97;;
6109;SDS011;3085;49.444;11.054;2022-08-06T07:11:14;1.57;;;1.10;;
6109;SDS011;3085;49.444;11.054;2022-08-06T07:13:43;2.33;;;1.17;;
6109;SDS011;3085;49.444;11.054;2022-08-06T07:16:13;1.63;;;1.00;;
6109;SDS011;3085;49.444;11.054;2022-08-06T07:18:42;1.20;;;0.90;;
6109;SDS011;3085;49.444;11.054;2022-08-06T07:21:10;1.40;;;1.10;;
6109;SDS011;3085;49.444;11.054;2022-08-06T07:23:41;1.57;;;1.00;;
6109;SDS011;3085;49.444;11.054;2022-08-06T07:26:11;1.60;;;0.93;;
6109;SDS011;3085;49.444;11.054;2022-08-06T07:28:39;7.83;;;1.20;;
6109;SDS011;3085;49.444;11.054;2022-08-06T07:31:06;3.40;;;1.33;;
6109;SDS011;3085;49.444;11.054;2022-08-06T07:33:34;1.60;;;1.10;;
6109;SDS011;3085;49.444;11.054;2022-08-06T07:36:03;2.03;;;1.03;;
6109;SDS011;3085;49.444;11.054;2022-08-06T07:38:31;1.90;;;1.23;;
6109;SDS011;3085;49.444;11.054;2022-08-06T07:41:03;3.20;;;0.90;;
6109;SDS011;3085;49.444;11.054;2022-08-06T07:43:31;4.33;;;1.10;;
6109;SDS011;3085;49.444;11.054;2022-08-06T07:46:02;3.30;;;1.03;;
6109;SDS011;3085;49.444;11.054;2022-08-06T07:48:31;1.70;;;0.90;;
6109;SDS011;3085;49.444;11.054;2022-08-06T07:51:01;1.50;;;0.80;;
6109;SDS011;3085;49.444;11.054;2022-08-06T07:53:29;1.40;;;0.80;;
6109;SDS011;3085;49.444;11.054;2022-08-06T07:55:59;1.30;;;0.77;;
6109;SDS011;3085;49.444;11.054;2022-08-06T07:58:29;1.50;;;1.10;;
6109;SDS011;3085;49.444;11.054;2022-08-06T08:00:57;3.20;;;0.97;;
6109;SDS011;3085;49.444;11.054;2022-08-06T08:03:27;1.20;;;0.70;;
6109;SDS011;3085;49.444;11.054;2022-08-06T08:06:13;1.40;;;1.10;;
6109;SDS011;3085;49.444;11.054;2022-08-06T08:08:51;1.60;;;0.70;;
6109;SDS011;3085;49.444;11.054;2022-08-06T08:11:21;1.33;;;0.70;;
6109;SDS011;3085;49.444;11.054;2022-08-06T08:13:49;1.10;;;0.70;;
6109;SDS011;3085;49.444;11.054;2022-08-06T08:16:18;1.67;;;1.00;;
6109;SDS011;3085;49.444;11.054;2022-08-06T08:18:46;1.20;;;0.97;;
6109;SDS011;3085;49.444;11.054;2022-08-06T08:21:14;1.20;;;0.77;;
6109;SDS011;3085;49.444;11.054;2022-08-06T08:23:41;1.40;;;1.00;;
6109;SDS011;3085;49.444;11.054;2022-08-06T08:26:09;1.30;;;0.80;;
6109;SDS011;3085;49.444;11.054;2022-08-06T08:28:37;1.30;;;0.90;;
6109;SDS011;3085;49.444;11.054;2022-08-06T08:31:05;1.37;;;0.97;;
6109;SDS011;3085;49.444;11.054;2022-08-06T08:33:34;2.80;;;0.90;;
6109;SDS011;3085;49.444;11.054;2022-08-06T08:36:02;1.10;;;0.77;;
6109;SDS011;3085;49.444;11.054;2022-08-06T08:38:30;1.20;;;0.80;;
6109;SDS011;3085;49.444;11.054;2022-08-06T08:40:59;1.87;;;1.37;;
6109;SDS011;3085;49.444;11.054;2022-08-06T08:43:29;9.10;;;1.20;;
6109;SDS011;3085;49.444;11.054;2022-08-06T08:46:01;1.77;;;1.13;;
6109;SDS011;3085;49.444;11.054;2022-08-06T08:48:30;1.20;;;0.70;;
6109;SDS011;3085;49.444;11.054;2022-08-06T08:50:58;1.87;;;0.90;;
6109;SDS011;3085;49.444;11.054;2022-08-06T08:53:28;1.10;;;0.70;;
6109;SDS011;3085;49.444;11.054;2022-08-06T08:55:59;1.67;;;0.83;;
6109;SDS011;3085;49.444;11.054;2022-08-06T08:58:27;4.10;;;0.90;;
6109;SDS011;3085;49.444;11.054;2022-08-06T09:00:56;1.50;;;0.73;;
6109;SDS011;3085;49.444;11.054;2022-08-06T09:03:25;1.20;;;0.70;;
6109;SDS011;3085;49.444;11.054;2022-08-06T09:05:52;1.47;;;0.70;;
6109;SDS011;3085;49.444;11.054;2022-08-06T09:08:19;3.63;;;1.07;;
6109;SDS011;3085;49.444;11.054;2022-08-06T09:10:46;1.47;;;1.10;;
6109;SDS011;3085;49.444;11.054;2022-08-06T09:13:14;1.20;;;0.70;;
6109;SDS011;3085;49.444;11.054;2022-08-06T09:15:40;9.33;;;1.23;;
6109;SDS011;3085;49.444;11.054;2022-08-06T09:18:07;7.60;;;0.80;;
6109;SDS011;3085;49.444;11.054;2022-08-06T09:20:36;2.53;;;1.10;;
6109;SDS011;3085;49.444;11.054;2022-08-06T09:23:03;3.03;;;1.00;;
6109;SDS011;3085;49.444;11.054;2022-08-06T09:25:36;1.50;;;1.00;;
6109;SDS011;3085;49.444;11.054;2022-08-06T09:28:08;1.40;;;0.90;;
6109;SDS011;3085;49.444;11.054;2022-08-06T09:30:36;1.63;;;0.80;;
6109;SDS011;3085;49.444;11.054;2022-08-06T09:33:09;1.30;;;0.83;;
6109;SDS011;3085;49.444;11.054;2022-08-06T09:35:38;1.57;;;1.07;;
6109;SDS011;3085;49.444;11.054;2022-08-06T09:38:06;1.60;;;0.77;;
6109;SDS011;3085;49.444;11.054;2022-08-06T09:40:34;2.07;;;0.70;;
6109;SDS011;3085;49.444;11.054;2022-08-06T09:43:01;1.60;;;0.90;;
6109;SDS011;3085;49.444;11.054;2022-08-06T09:45:28;1.97;;;1.10;;
6109;SDS011;3085;49.444;11.054;2022-08-06T09:48:02;5.33;;;0.70;;
6109;SDS011;3085;49.444;11.054;2022-08-06T09:50:39;2.00;;;0.77;;
6109;SDS011;3085;49.444;11.054;2022-08-06T09:53:07;1.20;;;0.80;;
6109;SDS011;3085;49.444;11.054;2022-08-06T09:55:34;3.27;;;0.70;;
6109;SDS011;3085;49.444;11.054;2022-08-06T09:58:01;3.57;;;0.90;;
6109;SDS011;3085;49.444;11.054;2022-08-06T10:00:31;2.23;;;1.37;;
6109;SDS011;3085;49.444;11.054;2022-08-06T10:02:59;1.97;;;0.90;;
6109;SDS011;3085;49.444;11.054;2022-08-06T10:05:27;1.10;;;0.73;;
6109;SDS011;3085;49.444;11.054;2022-08-06T10:08:06;1.10;;;0.80;;
6109;SDS011;3085;49.444;11.054;2022-08-06T10:10:38;1.50;;;0.90;;
6109;SDS011;3085;49.444;11.054;2022-08-06T10:13:11;1.53;;;0.80;;
6109;SDS011;3085;49.444;11.054;2022-08-06T10:15:41;1.50;;;0.93;;
6109;SDS011;3085;49.444;11.054;2022-08-06T10:18:09;1.13;;;0.80;;
6109;SDS011;3085;49.444;11.054;2022-08-06T10:20:36;1.53;;;0.80;;
6109;SDS011;3085;49.444;11.054;2022-08-06T10:23:03;1.77;;;0.90;;
6109;SDS011;3085;49.444;11.054;2022-08-06T10:25:38;1.40;;;0.70;;
6109;SDS011;3085;49.444;11.054;2022-08-06T10:28:05;1.30;;;0.80;;
6109;SDS011;3085;49.444;11.054;2022-08-06T10:30:32;1.87;;;1.00;;
6109;SDS011;3085;49.444;11.054;2022-08-06T10:32:59;1.30;;;0.70;;
6109;SDS011;3085;49.444;11.054;2022-08-06T10:35:31;2.43;;;1.43;;
6109;SDS011;3085;49.444;11.054;2022-08-06T10:37:58;1.67;;;0.80;;
6109;SDS011;3085;49.444;11.054;2022-08-06T10:40:30;7.10;;;1.33;;
6109;SDS011;3085;49.444;11.054;2022-08-06T10:43:01;1.40;;;0.90;;
6109;SDS011;3085;49.444;11.054;2022-08-06T10:45:29;1.73;;;0.73;;
6109;SDS011;3085;49.444;11.054;2022-08-06T10:47:58;1.20;;;0.83;;
6109;SDS011;3085;49.444;11.054;2022-08-06T10:50:25;1.30;;;0.80;;
6109;SDS011;3085;49.444;11.054;2022-08-06T10:52:52;1.50;;;0.90;;
6109;SDS011;3085;49.444;11.054;2022-08-06T10:55:20;1.77;;;1.10;;
6109;SDS011;3085;49.444;11.054;2022-08-06T10:57:49;1.87;;;1.00;;
6109;SDS011;3085;49.444;11.054;2022-08-06T11:00:16;1.10;;;0.70;;
6109;SDS011;3085;49.444;11.054;2022-08-06T11:02:46;1.40;;;1.00;;
6109;SDS011;3085;49.444;11.054;2022-08-06T11:05:19;1.10;;;0.70;;
6109;SDS011;3085;49.444;11.054;2022-08-06T11:07:58;1.53;;;1.10;;
6109;SDS011;3085;49.444;11.054;2022-08-06T11:10:46;1.40;;;0.90;;
6109;SDS011;3085;49.444;11.054;2022-08-06T11:13:27;1.20;;;0.80;;
6109;SDS011;3085;49.444;11.054;2022-08-06T11:15:57;1.83;;;0.80;;
6109;SDS011;3085;49.444;11.054;2022-08-06T11:18:24;3.20;;;1.00;;
6109;SDS011;3085;49.444;11.054;2022-08-06T11:20:51;1.80;;;0.70;;
6109;SDS011;3085;49.444;11.054;2022-08-06T11:23:26;1.10;;;0.70;;
6109;SDS011;3085;49.444;11.054;2022-08-06T11:25:55;1.10;;;0.70;;
6109;SDS011;3085;49.444;11.054;2022-08-06T11:31:30;1.20;;;0.90;;
6109;SDS011;3085;49.444;11.054;2022-08-06T11:34:02;1.20;;;0.70;;
6109;SDS011;3085;49.444;11.054;2022-08-06T11:36:42;1.30;;;0.70;;
6109;SDS011;3085;49.444;11.054;2022-08-06T11:39:20;1.40;;;0.70;;
6109;SDS011;3085;49.444;11.054;2022-08-06T11:41:51;1.10;;;0.60;;
6109;SDS011;3085;49.444;11.054;2022-08-06T11:44:21;1.30;;;0.83;;
6109;SDS011;3085;49.444;11.054;2022-08-06T11:47:05;1.10;;;0.60;;
6109;SDS011;3085;49.444;11.054;2022-08-06T11:49:36;1.30;;;0.90;;
6109;SDS011;3085;49.444;11.054;2022-08-06T11:52:05;2.70;;;0.93;;
6109;SDS011;3085;49.444;11.054;2022-08-06T11:54:34;2.03;;;1.00;;
6109;SDS011;3085;49.444;11.054;2022-08-06T11:57:21;2.17;;;0.93;;
6109;SDS011;3085;49.444;11.054;2022-08-06T12:02:49;1.97;;;0.90;;
6109;SDS011;3085;49.444;11.054;2022-08-06T12:05:38;1.30;;;0.70;;
6109;SDS011;3085;49.444;11.054;2022-08-06T12:08:22;1.83;;;0.67;;
6109;SDS011;3085;49.444;11.054;2022-08-06T12:13:50;1.37;;;0.80;;
6109;SDS011;3085;49.444;11.054;2022-08-06T12:16:28;1.30;;;0.70;;
6109;SDS011;3085;49.444;11.054;2022-08-06T12:18:57;1.20;;;0.70;;
6109;SDS011;3085;49.444;11.054;2022-08-06T12:21:24;2.90;;;0.90;;
6109;SDS011;3085;49.444;11.054;2022-08-06T12:23:51;2.07;;;0.90;;
6109;SDS011;3085;49.444;11.054;2022-08-06T12:26:19;1.40;;;0.90;;
6109;SDS011;3085;49.444;11.054;2022-08-06T12:28:47;2.20;;;0.97;;
6109;SDS011;3085;49.444;11.054;2022-08-06T12:31:28;2.23;;;1.50;;
6109;SDS011;3085;49.444;11.054;2022-08-06T12:33:56;1.50;;;0.80;;
6109;SDS011;3085;49.444;11.054;2022-08-06T12:36:25;1.20;;;0.67;;
6109;SDS011;3085;49.444;11.054;2022-08-06T12:38:54;1.87;;;1.00;;
6109;SDS011;3085;49.444;11.054;2022-08-06T12:41:21;1.30;;;0.90;;
6109;SDS011;3085;49.444;11.054;2022-08-06T12:43:48;1.93;;;0.77;;
6109;SDS011;3085;49.444;11.054;2022-08-06T12:46:15;1.10;;;0.57;;
6109;SDS011;3085;49.444;11.054;2022-08-06T12:48:46;1.60;;;0.80;;
6109;SDS011;3085;49.444;11.054;2022-08-06T12:51:15;1.20;;;0.70;;
6109;SDS011;3085;49.444;11.054;2022-08-06T12:53:43;1.20;;;0.60;;
6109;SDS011;3085;49.444;11.054;2022-08-06T12:56:14;1.30;;;0.93;;
6109;SDS011;3085;49.444;11.054;2022-08-06T12:58:41;1.40;;;0.60;;
6109;SDS011;3085;49.444;11.054;2022-08-06T13:01:11;2.07;;;1.13;;
6109;SDS011;3085;49.444;11.054;2022-08-06T13:03:41;1.53;;;0.77;;
6109;SDS011;3085;49.444;11.054;2022-08-06T13:06:11;1.10;;;0.67;;
6109;SDS011;3085;49.444;11.054;2022-08-06T13:08:40;2.13;;;1.00;;
6109;SDS011;3085;49.444;11.054;2022-08-06T13:11:07;1.50;;;0.80;;
6109;SDS011;3085;49.444;11.054;2022-08-06T13:13:36;1.10;;;0.60;;
6109;SDS011;3085;49.444;11.054;2022-08-06T13:18:39;1.20;;;0.73;;
6109;SDS011;3085;49.444;11.054;2022-08-06T13:21:16;1.57;;;0.70;;
6109;SDS011;3085;49.444;11.054;2022-08-06T13:23:45;1.77;;;0.80;;
6109;SDS011;3085;49.444;11.054;2022-08-06T13:26:14;1.30;;;0.77;;
6109;SDS011;3085;49.444;11.054;2022-08-06T13:31:32;2.93;;;0.83;;
6109;SDS011;3085;49.444;11.054;2022-08-06T13:33:59;1.10;;;0.60;;
6109;SDS011;3085;49.444;11.054;2022-08-06T13:36:29;1.30;;;0.73;;
6109;SDS011;3085;49.444;11.054;2022-08-06T13:38:58;2.80;;;0.70;;
6109;SDS011;3085;49.444;11.054;2022-08-06T13:41:45;1.97;;;0.87;;
6109;SDS011;3085;49.444;11.054;2022-08-06T13:44:28;2.00;;;0.87;;
6109;SDS011;3085;49.444;11.054;2022-08-06T13:47:00;1.73;;;0.70;;
6109;SDS011;3085;49.444;11.054;2022-08-06T13:49:29;1.90;;;0.73;;
6109;SDS011;3085;49.444;11.054;2022-08-06T13:54:50;1.40;;;0.60;;
6109;SDS011;3085;49.444;11.054;2022-08-06T13:57:17;1.90;;;0.77;;
6109;SDS011;3085;49.444;11.054;2022-08-06T13:59:44;4.30;;;0.90;;
6109;SDS011;3085;49.444;11.054;2022-08-06T14:02:12;1.30;;;0.70;;
6109;SDS011;3085;49.444;11.054;2022-08-06T14:04:40;1.57;;;0.77;;
6109;SDS011;3085;49.444;11.054;2022-08-06T14:07:08;3.07;;;0.90;;
6109;SDS011;3085;49.444;11.054;2022-08-06T14:09:38;1.10;;;0.50;;
6109;SDS011;3085;49.444;11.054;2022-08-06T14:12:05;1.40;;;0.70;;
6109;SDS011;3085;49.444;11.054;2022-08-06T14:14:33;1.67;;;0.80;;
6109;SDS011;3085;49.444;11.054;2022-08-06T14:17:01;1.33;;;0.87;;
6109;SDS011;3085;49.444;11.054;2022-08-06T14:19:28;4.77;;;1.10;;
6109;SDS011;3085;49.444;11.054;2022-08-06T14:21:55;1.20;;;0.70;;
6109;SDS011;3085;49.444;11.054;2022-08-06T14:24:22;1.30;;;0.80;;
6109;SDS011;3085;49.444;11.054;2022-08-06T14:26:52;2.10;;;0.77;;
6109;SDS011;3085;49.444;11.054;2022-08-06T14:29:19;3.57;;;0.80;;
6109;SDS011;3085;49.444;11.054;2022-08-06T14:31:46;1.70;;;0.93;;
6109;SDS011;3085;49.444;11.054;2022-08-06T14:34:15;2.27;;;1.20;;
6109;SDS011;3085;49.444;11.054;2022-08-06T14:36:43;2.23;;;1.00;;
6109;SDS011;3085;49.444;11.054;2022-08-06T14:39:10;1.20;;;0.70;;
6109;SDS011;3085;49.444;11.054;2022-08-06T14:41:37;1.70;;;0.90;;
6109;SDS011;3085;49.444;11.054;2022-08-06T14:44:23;2.47;;;0.70;;
6109;SDS011;3085;49.444;11.054;2022-08-06T14:47:07;2.03;;;0.60;;
6109;SDS011;3085;49.444;11.054;2022-08-06T14:49:35;1.47;;;0.70;;
6109;SDS011;3085;49.444;11.054;2022-08-06T14:52:04;1.10;;;0.67;;
6109;SDS011;3085;49.444;11.054;2022-08-06T14:54:31;1.70;;;1.03;;
6109;SDS011;3085;49.444;11.054;2022-08-06T14:57:00;1.77;;;0.80;;
6109;SDS011;3085;49.444;11.054;2022-08-06T14:59:30;1.97;;;1.23;;
6109;SDS011;3085;49.444;11.054;2022-08-06T15:01:57;3.83;;;1.30;;
6109;SDS011;3085;49.444;11.054;2022-08-06T15:04:24;2.40;;;0.70;;
6109;SDS011;3085;49.444;11.054;2022-08-06T15:06:52;1.90;;;0.80;;
6109;SDS011;3085;49.444;11.054;2022-08-06T15:09:19;2.60;;;0.80;;
6109;SDS011;3085;49.444;11.054;2022-08-06T15:11:46;1.30;;;0.63;;
6109;SDS011;3085;49.444;11.054;2022-08-06T15:14:14;1.40;;;0.77;;
6109;SDS011;3085;49.444;11.054;2022-08-06T15:16:42;1.10;;;0.60;;
6109;SDS011;3085;49.444;11.054;2022-08-06T15:19:09;1.63;;;0.73;;
6109;SDS011;3085;49.444;11.054;2022-08-06T15:21:36;1.70;;;0.80;;
6109;SDS011;3085;49.444;11.054;2022-08-06T15:24:04;1.10;;;0.60;;
6109;SDS011;3085;49.444;11.054;2022-08-06T15:26:31;1.20;;;0.70;;
6109;SDS011;3085;49.444;11.054;2022-08-06T15:28:58;1.30;;;0.77;;
6109;SDS011;3085;49.444;11.054;2022-08-06T15:31:26;2.33;;;0.83;;
6109;SDS011;3085;49.444;11.054;2022-08-06T15:33:55;2.57;;;1.07;;
6109;SDS011;3085;49.444;11.054;2022-08-06T15:36:23;1.33;;;0.63;;
6109;SDS011;3085;49.444;11.054;2022-08-06T15:38:50;1.50;;;0.80;;